Anderson Grade Atmospheric Data: 06/30/2020 Summary  Detailed Graphs  Station List

  Temperature     Wind Precipitation Visibility
Timestamp Air Wet
Bulb
Dew-
point
24-hr
Max
24-hr
Min
Relative
Humidity
Atmospheric
Pressure
Avg
Speed
Avg
Dir
Spot
Speed
Spot
Dir
Max
Speed
Max
Dir
  Rate Situation Start End 1 hr 3 hr 6 hr 12 hr 24 hr   Situation
Date Time °F °F °F °F °F % in Hg mph ° mph ° mph ° Y/N in/hr text Date Time Date Time in in in in in mi text
06/30/2020 12:01 AM 60.08 49.46 38.84 75.20 47.30 45.0 Not Reported 6.49 N 4.92 NW 8.50 N No 0.000 No Precipitation 06/14/2020 03:00 AM 06/14/2020 03:05 AM 0.000 0.000 0.000 0.000 0.000 Not Reported Not Reported
06/30/2020 12:16 AM 59.36 49.10 38.84 75.20 47.30 46.0 Not Reported 3.13 N 4.25 N 6.93 N No 0.000 No Precipitation 06/14/2020 03:00 AM 06/14/2020 03:05 AM 0.000 0.000 0.000 0.000 0.000 Not Reported Not Reported
06/30/2020 12:31 AM 58.28 48.56 38.84 75.20 47.30 48.0 Not Reported 1.79 N 3.13 N 4.25 N No 0.000 No Precipitation 06/14/2020 03:00 AM 06/14/2020 03:05 AM 0.000 0.000 0.000 0.000 0.000 Not Reported Not Reported
06/30/2020 12:46 AM 58.10 48.38 38.48 75.20 47.30 48.0 Not Reported 0.89 NW 2.01 NW 3.58 N No 0.000 No Precipitation 06/14/2020 03:00 AM 06/14/2020 03:05 AM 0.000 0.000 0.000 0.000 0.000 Not Reported Not Reported
06/30/2020 01:01 AM 57.38 48.20 39.02 75.20 47.30 50.0 Not Reported 0.00 N 0.45 NW 1.57 N No 0.000 No Precipitation 06/14/2020 03:00 AM 06/14/2020 03:05 AM 0.000 0.000 0.000 0.000 0.000 Not Reported Not Reported
06/30/2020 01:16 AM 55.40 47.30 39.02 75.20 47.30 53.0 Not Reported 1.34 N 1.57 N 1.79 NW No 0.000 No Precipitation 06/14/2020 03:00 AM 06/14/2020 03:05 AM 0.000 0.000 0.000 0.000 0.000 Not Reported Not Reported
06/30/2020 01:31 AM 55.40 47.30 39.02 75.20 47.30 54.0 Not Reported 0.22 S 0.45 SE 1.34 NW No 0.000 No Precipitation 06/14/2020 03:00 AM 06/14/2020 03:05 AM 0.000 0.000 0.000 0.000 0.000 Not Reported Not Reported
06/30/2020 01:46 AM 57.02 48.02 39.02 75.20 47.30 50.0 Not Reported 0.67 W 0.67 W 1.12 S No 0.000 No Precipitation 06/14/2020 03:00 AM 06/14/2020 03:05 AM 0.000 0.000 0.000 0.000 0.000 Not Reported Not Reported
06/30/2020 02:01 AM 55.76 47.30 38.66 75.20 47.30 52.0 Not Reported 0.00 N 0.00 S 1.34 S No 0.000 No Precipitation 06/14/2020 03:00 AM 06/14/2020 03:05 AM 0.000 0.000 0.000 0.000 0.000 Not Reported Not Reported
06/30/2020 02:16 AM 54.86 46.76 38.12 75.20 47.30 53.0 Not Reported 1.57 S 1.34 S 2.24 S No 0.000 No Precipitation 06/14/2020 03:00 AM 06/14/2020 03:05 AM 0.000 0.000 0.000 0.000 0.000 Not Reported Not Reported
06/30/2020 02:31 AM 55.22 46.76 37.94 75.20 47.30 52.0 Not Reported 1.34 S 1.34 S 1.57 SE No 0.000 No Precipitation 06/14/2020 03:00 AM 06/14/2020 03:05 AM 0.000 0.000 0.000 0.000 0.000 Not Reported Not Reported
06/30/2020 02:46 AM 54.32 46.22 37.58 75.20 47.30 53.0 Not Reported 1.34 S 1.12 S 4.25 S No 0.000 No Precipitation 06/14/2020 03:00 AM 06/14/2020 03:05 AM 0.000 0.000 0.000 0.000 0.000 Not Reported Not Reported
06/30/2020 03:01 AM 55.04 46.76 38.12 75.20 47.30 52.0 Not Reported 1.79 S 1.79 SE 2.24 S No 0.000 No Precipitation 06/14/2020 03:00 AM 06/14/2020 03:05 AM 0.000 0.000 0.000 0.000 0.000 Not Reported Not Reported
06/30/2020 03:16 AM 55.04 46.76 38.30 75.20 47.30 53.0 Not Reported 1.79 S 1.79 S 2.01 SE No 0.000 No Precipitation 06/14/2020 03:00 AM 06/14/2020 03:05 AM 0.000 0.000 0.000 0.000 0.000 Not Reported Not Reported
06/30/2020 03:31 AM 55.22 46.94 38.30 75.20 47.30 52.0 Not Reported 0.89 SE 0.45 S 1.57 SE No 0.000 No Precipitation 06/14/2020 03:00 AM 06/14/2020 03:05 AM 0.000 0.000 0.000 0.000 0.000 Not Reported Not Reported
06/30/2020 03:46 AM 54.68 46.76 38.66 75.20 47.30 54.0 Not Reported 0.22 NW 0.89 N 0.89 S No 0.000 No Precipitation 06/14/2020 03:00 AM 06/14/2020 03:05 AM 0.000 0.000 0.000 0.000 0.000 Not Reported Not Reported
06/30/2020 04:01 AM 53.96 46.40 38.48 75.20 47.30 55.0 Not Reported 1.34 NW 0.67 NW 2.68 NW No 0.000 No Precipitation 06/14/2020 03:00 AM 06/14/2020 03:05 AM 0.000 0.000 0.000 0.000 0.000 Not Reported Not Reported
06/30/2020 04:16 AM 53.06 45.86 38.12 75.20 47.30 56.0 Not Reported 2.01 NW 2.24 NW 2.46 NW No 0.000 No Precipitation 06/14/2020 03:00 AM 06/14/2020 03:05 AM 0.000 0.000 0.000 0.000 0.000 Not Reported Not Reported
06/30/2020 04:31 AM 50.54 44.60 38.12 75.20 47.30 62.0 Not Reported 2.46 NW 2.46 NW 2.68 N No 0.000 No Precipitation 06/14/2020 03:00 AM 06/14/2020 03:05 AM 0.000 0.000 0.000 0.000 0.000 Not Reported Not Reported
06/30/2020 04:46 AM 50.90 44.78 38.30 75.20 47.30 61.0 Not Reported 1.79 N 1.79 N 2.91 NW No 0.000 No Precipitation 06/14/2020 03:00 AM 06/14/2020 03:05 AM 0.000 0.000 0.000 0.000 0.000 Not Reported Not Reported
06/30/2020 05:01 AM 50.36 44.60 38.30 75.20 47.30 63.0 Not Reported 1.34 N 0.45 N 3.13 NW No 0.000 No Precipitation 06/14/2020 03:00 AM 06/14/2020 03:05 AM 0.000 0.000 0.000 0.000 0.000 Not Reported Not Reported
06/30/2020 05:16 AM 50.18 44.60 38.48 75.20 47.30 64.0 Not Reported 1.12 NW 0.89 N 1.57 N No 0.000 No Precipitation 06/14/2020 03:00 AM 06/14/2020 03:05 AM 0.000 0.000 0.000 0.000 0.000 Not Reported Not Reported
06/30/2020 05:31 AM 49.28 43.88 38.12 75.20 47.30 65.0 Not Reported 1.34 N 1.79 N 2.91 NW No 0.000 No Precipitation 06/14/2020 03:00 AM 06/14/2020 03:05 AM 0.000 0.000 0.000 0.000 0.000 Not Reported Not Reported
06/30/2020 05:46 AM 49.82 44.06 37.76 75.20 47.30 63.0 Not Reported 1.79 N 1.57 NE 4.70 NW No 0.000 No Precipitation 06/14/2020 03:00 AM 06/14/2020 03:05 AM 0.000 0.000 0.000 0.000 0.000 Not Reported Not Reported
06/30/2020 06:01 AM 49.28 43.88 37.76 75.20 48.02 64.0 Not Reported 2.46 NW 1.12 NW 3.36 NW No 0.000 No Precipitation 06/14/2020 03:00 AM 06/14/2020 03:05 AM 0.000 0.000 0.000 0.000 0.000 Not Reported Not Reported
06/30/2020 06:16 AM 49.10 43.70 37.76 75.20 48.38 64.0 Not Reported 2.46 N 1.57 N 3.36 N No 0.000 No Precipitation 06/14/2020 03:00 AM 06/14/2020 03:05 AM 0.000 0.000 0.000 0.000 0.000 Not Reported Not Reported
06/30/2020 06:31 AM 49.46 43.88 37.94 75.20 48.56 64.0 Not Reported 2.46 N 3.58 N 4.47 NW No 0.000 No Precipitation 06/14/2020 03:00 AM 06/14/2020 03:05 AM 0.000 0.000 0.000 0.000 0.000 Not Reported Not Reported
06/30/2020 06:46 AM 49.82 44.24 38.12 75.20 48.92 63.0 Not Reported 2.01 N 0.67 NW 4.25 N No 0.000 No Precipitation 06/14/2020 03:00 AM 06/14/2020 03:05 AM 0.000 0.000 0.000 0.000 0.000 Not Reported Not Reported
06/30/2020 07:01 AM 51.44 45.14 38.48 75.20 48.92 61.0 Not Reported 2.91 N 6.04 N 6.04 N No 0.000 No Precipitation 06/14/2020 03:00 AM 06/14/2020 03:05 AM 0.000 0.000 0.000 0.000 0.000 Not Reported Not Reported
06/30/2020 07:16 AM 53.06 46.04 38.66 75.20 48.92 58.0 Not Reported 3.58 N 3.36 NW 5.14 NW No 0.000 No Precipitation 06/14/2020 03:00 AM 06/14/2020 03:05 AM 0.000 0.000 0.000 0.000 0.000 Not Reported Not Reported
06/30/2020 07:31 AM 54.68 46.94 39.02 75.20 48.92 55.0 Not Reported 2.46 N 2.46 N 4.47 N No 0.000 No Precipitation 06/14/2020 03:00 AM 06/14/2020 03:05 AM 0.000 0.000 0.000 0.000 0.000 Not Reported Not Reported
06/30/2020 07:46 AM 55.40 47.48 39.56 75.20 48.92 55.0 Not Reported 4.03 N 4.92 N 5.82 N No 0.000 No Precipitation 06/14/2020 03:00 AM 06/14/2020 03:05 AM 0.000 0.000 0.000 0.000 0.000 Not Reported Not Reported
06/30/2020 08:01 AM 57.20 48.38 39.74 75.20 48.92 52.0 Not Reported 2.46 N 3.58 N 4.25 NW No 0.000 No Precipitation 06/14/2020 03:00 AM 06/14/2020 03:05 AM 0.000 0.000 0.000 0.000 0.000 Not Reported Not Reported
06/30/2020 08:16 AM 57.92 49.10 40.46 75.20 48.92 52.0 Not Reported 2.46 NW 2.01 N 4.92 NW No 0.000 No Precipitation 06/14/2020 03:00 AM 06/14/2020 03:05 AM 0.000 0.000 0.000 0.000 0.000 Not Reported Not Reported
06/30/2020 08:31 AM 59.18 50.00 41.18 75.20 48.92 51.0 Not Reported 2.24 N 3.36 NW 3.80 NW No 0.000 No Precipitation 06/14/2020 03:00 AM 06/14/2020 03:05 AM 0.000 0.000 0.000 0.000 0.000 Not Reported Not Reported
06/30/2020 08:46 AM 60.08 50.54 41.54 75.20 48.92 50.0 Not Reported 2.46 N 3.58 N 4.47 N No 0.000 No Precipitation 06/14/2020 03:00 AM 06/14/2020 03:05 AM 0.000 0.000 0.000 0.000 0.000 Not Reported Not Reported
06/30/2020 09:01 AM 60.80 50.90 41.72 75.20 48.92 49.0 Not Reported 2.46 N 2.46 W 4.25 N No 0.000 No Precipitation 06/14/2020 03:00 AM 06/14/2020 03:05 AM 0.000 0.000 0.000 0.000 0.000 Not Reported Not Reported
06/30/2020 09:16 AM 62.96 51.98 42.08 75.20 48.92 46.0 Not Reported 2.46 NE 1.79 NE 4.70 N No 0.000 No Precipitation 06/14/2020 03:00 AM 06/14/2020 03:05 AM 0.000 0.000 0.000 0.000 0.000 Not Reported Not Reported
06/30/2020 09:31 AM 64.76 52.52 41.54 75.20 48.92 42.0 Not Reported 1.79 SE 2.91 S 5.14 SE No 0.000 No Precipitation 06/14/2020 03:00 AM 06/14/2020 03:05 AM 0.000 0.000 0.000 0.000 0.000 Not Reported Not Reported
06/30/2020 09:46 AM 66.02 51.98 38.66 75.20 48.92 36.0 Not Reported 0.45 NW 0.89 N 2.24 S No 0.000 No Precipitation 06/14/2020 03:00 AM 06/14/2020 03:05 AM 0.000 0.000 0.000 0.000 0.000 Not Reported Not Reported
06/30/2020 10:01 AM 66.02 51.80 38.12 75.20 48.92 35.0 Not Reported 2.46 NE 0.89 NE 3.58 N No 0.000 No Precipitation 06/14/2020 03:00 AM 06/14/2020 03:05 AM 0.000 0.000 0.000 0.000 0.000 Not Reported Not Reported
06/30/2020 10:16 AM 66.38 51.08 35.60 75.20 48.92 31.0 Not Reported 1.79 N 0.00 N 3.36 N No 0.000 No Precipitation 06/14/2020 03:00 AM 06/14/2020 03:05 AM 0.000 0.000 0.000 0.000 0.000 Not Reported Not Reported
06/30/2020 10:31 AM 67.46 52.16 37.22 75.20 48.92 32.0 Not Reported 4.03 E 3.80 NE 5.82 E No 0.000 No Precipitation 06/14/2020 03:00 AM 06/14/2020 03:05 AM 0.000 0.000 0.000 0.000 0.000 Not Reported Not Reported
06/30/2020 10:46 AM 68.54 51.80 34.70 75.20 48.92 28.0 Not Reported 2.24 N 3.13 E 4.03 NW No 0.000 No Precipitation 06/14/2020 03:00 AM 06/14/2020 03:05 AM 0.000 0.000 0.000 0.000 0.000 Not Reported Not Reported
06/30/2020 11:01 AM 72.14 53.42 34.88 75.20 48.92 25.0 Not Reported 3.13 S 4.47 SE 4.92 S No 0.000 No Precipitation 06/14/2020 03:00 AM 06/14/2020 03:05 AM 0.000 0.000 0.000 0.000 0.000 Not Reported Not Reported
06/30/2020 11:16 AM 70.52 52.70 34.88 75.20 48.92 27.0 Not Reported 2.91 S 3.36 SW 6.49 SE No 0.000 No Precipitation 06/14/2020 03:00 AM 06/14/2020 03:05 AM 0.000 0.000 0.000 0.000 0.000 Not Reported Not Reported
06/30/2020 11:31 AM 71.24 53.96 37.58 75.20 48.92 29.0 Not Reported 5.82 S 4.47 SE 6.93 S No 0.000 No Precipitation 06/14/2020 03:00 AM 06/14/2020 03:05 AM 0.000 0.000 0.000 0.000 0.000 Not Reported Not Reported
06/30/2020 11:46 AM 71.24 53.78 37.58 75.20 48.92 29.0 Not Reported 3.36 SE 2.46 E 10.51 SE No 0.000 No Precipitation 06/14/2020 03:00 AM 06/14/2020 03:05 AM 0.000 0.000 0.000 0.000 0.000 Not Reported Not Reported
06/30/2020 12:01 PM 71.96 53.78 37.22 75.20 48.92 28.0 Not Reported 7.61 SE 6.04 SE 9.62 SE No 0.000 No Precipitation 06/14/2020 03:00 AM 06/14/2020 03:05 AM 0.000 0.000 0.000 0.000 0.000 Not Reported Not Reported
06/30/2020 12:16 PM 72.32 54.14 36.86 75.20 48.92 27.0 Not Reported 3.58 S 3.36 S 9.84 S No 0.000 No Precipitation 06/14/2020 03:00 AM 06/14/2020 03:05 AM 0.000 0.000 0.000 0.000 0.000 Not Reported Not Reported
06/30/2020 12:31 PM 73.76 54.50 35.96 75.20 48.92 25.0 Not Reported 3.36 N 2.24 NW 6.04 S No 0.000 No Precipitation 06/14/2020 03:00 AM 06/14/2020 03:05 AM 0.000 0.000 0.000 0.000 0.000 Not Reported Not Reported
06/30/2020 12:46 PM 73.58 54.14 35.24 75.20 48.92 24.0 Not Reported 2.68 SE 3.13 S 5.14 N No 0.000 No Precipitation 06/14/2020 03:00 AM 06/14/2020 03:05 AM 0.000 0.000 0.000 0.000 0.000 Not Reported Not Reported
06/30/2020 01:01 PM 75.38 54.86 35.42 75.92 48.92 23.0 Not Reported 1.34 S 0.00 W 4.47 N No 0.000 No Precipitation 06/14/2020 03:00 AM 06/14/2020 03:05 AM 0.000 0.000 0.000 0.000 0.000 Not Reported Not Reported
06/30/2020 01:16 PM 76.28 55.40 35.78 77.36 48.92 23.0 Not Reported 3.80 S 5.14 S 7.83 N No 0.000 No Precipitation 06/14/2020 03:00 AM 06/14/2020 03:05 AM 0.000 0.000 0.000 0.000 0.000 Not Reported Not Reported
06/30/2020 01:31 PM 76.10 55.40 36.14 77.36 48.92 23.0 Not Reported 3.36 W 2.46 NW 4.25 SW No 0.000 No Precipitation 06/14/2020 03:00 AM 06/14/2020 03:05 AM 0.000 0.000 0.000 0.000 0.000 Not Reported Not Reported
06/30/2020 01:46 PM 75.56 54.86 34.70 77.54 48.92 22.0 Not Reported 1.34 N 0.00 S 8.28 NW No 0.000 No Precipitation 06/14/2020 03:00 AM 06/14/2020 03:05 AM 0.000 0.000 0.000 0.000 0.000 Not Reported Not Reported
06/30/2020 02:01 PM 77.54 55.58 34.88 77.54 48.92 21.0 Not Reported 2.01 NW 1.12 E 2.68 NW No 0.000 No Precipitation 06/14/2020 03:00 AM 06/14/2020 03:05 AM 0.000 0.000 0.000 0.000 0.000 Not Reported Not Reported
06/30/2020 02:16 PM 78.08 55.40 33.44 79.52 48.92 19.0 Not Reported 6.49 N 6.26 N 7.83 N No 0.000 No Precipitation 06/14/2020 03:00 AM 06/14/2020 03:05 AM 0.000 0.000 0.000 0.000 0.000 Not Reported Not Reported
06/30/2020 02:31 PM 77.90 55.58 33.26 79.52 48.92 19.0 Not Reported 4.25 N 3.58 NE 8.05 N No 0.000 No Precipitation 06/14/2020 03:00 AM 06/14/2020 03:05 AM 0.000 0.000 0.000 0.000 0.000 Not Reported Not Reported
06/30/2020 02:46 PM 78.62 55.76 33.98 80.42 48.92 19.0 Not Reported 4.03 W 5.59 W 8.28 N No 0.000 No Precipitation 06/14/2020 03:00 AM 06/14/2020 03:05 AM 0.000 0.000 0.000 0.000 0.000 Not Reported Not Reported
06/30/2020 03:01 PM 79.16 55.76 33.08 80.42 48.92 18.0 Not Reported 7.61 N 4.70 NW 9.40 N No 0.000 No Precipitation 06/14/2020 03:00 AM 06/14/2020 03:05 AM 0.000 0.000 0.000 0.000 0.000 Not Reported Not Reported
06/30/2020 03:16 PM 79.88 56.12 33.08 81.68 48.92 18.0 Not Reported 5.37 N 6.93 N 8.95 N No 0.000 No Precipitation 06/14/2020 03:00 AM 06/14/2020 03:05 AM 0.000 0.000 0.000 0.000 0.000 Not Reported Not Reported
06/30/2020 03:31 PM 78.80 55.76 33.62 81.68 48.92 19.0 Not Reported 6.71 NE 6.93 NE 7.83 NE No 0.000 No Precipitation 06/14/2020 03:00 AM 06/14/2020 03:05 AM 0.000 0.000 0.000 0.000 0.000 Not Reported Not Reported
06/30/2020 03:46 PM 81.68 56.84 33.08 82.04 48.92 17.0 Not Reported 4.03 N 2.91 NW 9.17 N No 0.000 No Precipitation 06/14/2020 03:00 AM 06/14/2020 03:05 AM 0.000 0.000 0.000 0.000 0.000 Not Reported Not Reported
06/30/2020 04:01 PM 81.50 56.66 32.72 82.04 48.92 17.0 Not Reported 1.79 N 2.46 NW 4.47 NW No 0.000 No Precipitation 06/14/2020 03:00 AM 06/14/2020 03:05 AM 0.000 0.000 0.000 0.000 0.000 Not Reported Not Reported
06/30/2020 04:16 PM 81.14 56.48 32.54 82.58 48.92 17.0 Not Reported 2.91 N 3.36 NW 7.38 S No 0.000 No Precipitation 06/14/2020 03:00 AM 06/14/2020 03:05 AM 0.000 0.000 0.000 0.000 0.000 Not Reported Not Reported
06/30/2020 04:31 PM 80.60 55.76 31.28 82.58 48.92 16.0 Not Reported 4.03 NW 0.89 W 6.04 NW No 0.000 No Precipitation 06/14/2020 03:00 AM 06/14/2020 03:05 AM 0.000 0.000 0.000 0.000 0.000 Not Reported Not Reported
06/30/2020 04:46 PM 81.14 57.38 35.60 82.58 48.92 19.0 Not Reported 3.58 NW 2.91 N 8.95 N No 0.000 No Precipitation 06/14/2020 03:00 AM 06/14/2020 03:05 AM 0.000 0.000 0.000 0.000 0.000 Not Reported Not Reported
06/30/2020 05:01 PM 80.60 57.20 36.14 82.58 48.92 20.0 Not Reported 7.16 N 6.04 NE 8.95 N No 0.000 No Precipitation 06/14/2020 03:00 AM 06/14/2020 03:05 AM 0.000 0.000 0.000 0.000 0.000 Not Reported Not Reported
06/30/2020 05:16 PM 80.06 57.38 37.22 82.58 48.92 21.0 Not Reported 6.71 NE 6.71 N 10.29 NE No 0.000 No Precipitation 06/14/2020 03:00 AM 06/14/2020 03:05 AM 0.000 0.000 0.000 0.000 0.000 Not Reported Not Reported
06/30/2020 05:31 PM 78.44 57.38 39.38 82.58 48.92 24.0 Not Reported 3.80 N 7.83 N 13.20 NE No 0.000 No Precipitation 06/14/2020 03:00 AM 06/14/2020 03:05 AM 0.000 0.000 0.000 0.000 0.000 Not Reported Not Reported
06/30/2020 05:46 PM 77.72 57.20 39.56 82.58 48.92 25.0 Not Reported 9.17 N 10.29 N 10.29 N No 0.000 No Precipitation 06/14/2020 03:00 AM 06/14/2020 03:05 AM 0.000 0.000 0.000 0.000 0.000 Not Reported Not Reported
06/30/2020 06:01 PM 76.28 56.48 39.02 82.58 48.92 26.0 Not Reported 8.72 N 9.17 N 13.20 N No 0.000 No Precipitation 06/14/2020 03:00 AM 06/14/2020 03:05 AM 0.000 0.000 0.000 0.000 0.000 Not Reported Not Reported
06/30/2020 06:16 PM 76.10 56.48 39.56 82.58 48.92 26.0 Not Reported 8.05 NE 6.71 N 8.95 NE No 0.000 No Precipitation 06/14/2020 03:00 AM 06/14/2020 03:05 AM 0.000 0.000 0.000 0.000 0.000 Not Reported Not Reported
06/30/2020 06:31 PM 75.20 55.76 38.30 82.58 48.92 26.0 Not Reported 7.38 NW 7.61 NW 10.96 N No 0.000 No Precipitation 06/14/2020 03:00 AM 06/14/2020 03:05 AM 0.000 0.000 0.000 0.000 0.000 Not Reported Not Reported
06/30/2020 06:46 PM 74.48 55.58 38.66 82.58 48.92 27.0 Not Reported 7.38 N 10.74 W 14.32 N No 0.000 No Precipitation 06/14/2020 03:00 AM 06/14/2020 03:05 AM 0.000 0.000 0.000 0.000 0.000 Not Reported Not Reported
06/30/2020 07:01 PM 73.76 55.22 38.30 82.58 48.92 27.0 Not Reported 8.28 N 5.59 N 12.53 NW No 0.000 No Precipitation 06/14/2020 03:00 AM 06/14/2020 03:05 AM 0.000 0.000 0.000 0.000 0.000 Not Reported Not Reported
06/30/2020 07:16 PM 72.50 54.86 38.84 82.58 48.92 29.0 Not Reported 8.50 N 9.84 NE 14.76 N No 0.000 No Precipitation 06/14/2020 03:00 AM 06/14/2020 03:05 AM 0.000 0.000 0.000 0.000 0.000 Not Reported Not Reported
06/30/2020 07:31 PM 71.60 54.50 38.84 82.58 48.92 30.0 Not Reported 10.74 N 11.41 N 15.43 N No 0.000 No Precipitation 06/14/2020 03:00 AM 06/14/2020 03:05 AM 0.000 0.000 0.000 0.000 0.000 Not Reported Not Reported
06/30/2020 07:46 PM 71.06 54.14 38.30 82.58 48.92 30.0 Not Reported 9.40 N 6.71 N 15.66 N No 0.000 No Precipitation 06/14/2020 03:00 AM 06/14/2020 03:05 AM 0.000 0.000 0.000 0.000 0.000 Not Reported Not Reported
06/30/2020 08:01 PM 69.98 53.78 38.66 82.58 48.92 31.0 Not Reported 6.71 N 7.16 N 14.09 N No 0.000 No Precipitation 06/14/2020 03:00 AM 06/14/2020 03:05 AM 0.000 0.000 0.000 0.000 0.000 Not Reported Not Reported
06/30/2020 08:16 PM 68.90 54.14 41.00 82.58 48.92 36.0 Not Reported 6.93 N 8.95 N 14.09 N No 0.000 No Precipitation 06/14/2020 03:00 AM 06/14/2020 03:05 AM 0.000 0.000 0.000 0.000 0.000 Not Reported Not Reported
06/30/2020 08:31 PM 67.10 53.78 41.90 82.58 48.92 39.0 Not Reported 8.95 N 8.95 NW 10.29 N No 0.000 No Precipitation 06/14/2020 03:00 AM 06/14/2020 03:05 AM 0.000 0.000 0.000 0.000 0.000 Not Reported Not Reported
06/30/2020 08:46 PM 65.84 53.24 41.90 82.58 48.92 41.0 Not Reported 10.51 N 10.07 N 13.87 N No 0.000 No Precipitation 06/14/2020 03:00 AM 06/14/2020 03:05 AM 0.000 0.000 0.000 0.000 0.000 Not Reported Not Reported
06/30/2020 09:01 PM 64.94 52.70 41.54 82.58 48.92 42.0 Not Reported 8.50 N 7.16 N 10.07 N No 0.000 No Precipitation 06/14/2020 03:00 AM 06/14/2020 03:05 AM 0.000 0.000 0.000 0.000 0.000 Not Reported Not Reported
06/30/2020 09:16 PM 64.04 52.16 41.36 82.58 48.92 43.0 Not Reported 6.71 N 6.93 NE 13.65 N No 0.000 No Precipitation 06/14/2020 03:00 AM 06/14/2020 03:05 AM 0.000 0.000 0.000 0.000 0.000 Not Reported Not Reported
06/30/2020 09:31 PM 63.32 51.80 41.18 82.58 48.92 44.0 Not Reported 9.84 N 7.38 NW 12.08 N No 0.000 No Precipitation 06/14/2020 03:00 AM 06/14/2020 03:05 AM 0.000 0.000 0.000 0.000 0.000 Not Reported Not Reported
06/30/2020 09:46 PM 62.96 51.44 40.82 82.58 48.92 44.0 Not Reported 9.84 N 12.30 NE 12.30 NE No 0.000 No Precipitation 06/14/2020 03:00 AM 06/14/2020 03:05 AM 0.000 0.000 0.000 0.000 0.000 Not Reported Not Reported
06/30/2020 10:01 PM 62.42 51.08 40.46 82.58 48.92 44.0 Not Reported 10.07 NW 12.30 N 13.42 N No 0.000 No Precipitation 06/14/2020 03:00 AM 06/14/2020 03:05 AM 0.000 0.000 0.000 0.000 0.000 Not Reported Not Reported
06/30/2020 10:16 PM 61.88 50.90 40.28 82.58 48.92 45.0 Not Reported 6.71 N 8.72 NW 12.53 N No 0.000 No Precipitation 06/14/2020 03:00 AM 06/14/2020 03:05 AM 0.000 0.000 0.000 0.000 0.000 Not Reported Not Reported
06/30/2020 10:31 PM 61.70 50.90 40.64 82.58 48.92 45.0 Not Reported 4.47 W 4.92 NW 10.51 N No 0.000 No Precipitation 06/14/2020 03:00 AM 06/14/2020 03:05 AM 0.000 0.000 0.000 0.000 0.000 Not Reported Not Reported
06/30/2020 10:46 PM 61.34 50.72 40.64 82.58 48.92 46.0 Not Reported 5.14 NW 4.47 NW 9.17 N No 0.000 No Precipitation 06/14/2020 03:00 AM 06/14/2020 03:05 AM 0.000 0.000 0.000 0.000 0.000 Not Reported Not Reported
06/30/2020 11:01 PM 60.98 50.54 40.64 82.58 48.92 47.0 Not Reported 5.14 N 5.14 NW 8.50 N No 0.000 No Precipitation 06/14/2020 03:00 AM 06/14/2020 03:05 AM 0.000 0.000 0.000 0.000 0.000 Not Reported Not Reported
06/30/2020 11:16 PM 59.90 50.00 40.64 82.58 48.92 48.0 Not Reported 5.37 N 4.03 N 6.49 N No 0.000 No Precipitation 06/14/2020 03:00 AM 06/14/2020 03:05 AM 0.000 0.000 0.000 0.000 0.000 Not Reported Not Reported
06/30/2020 11:31 PM 59.72 50.18 40.82 82.58 48.92 49.0 Not Reported 4.03 N 6.93 N 7.61 N No 0.000 No Precipitation 06/14/2020 03:00 AM 06/14/2020 03:05 AM 0.000 0.000 0.000 0.000 0.000 Not Reported Not Reported
06/30/2020 11:46 PM 59.36 49.82 40.64 82.58 48.92 49.0 Not Reported 5.14 NW 2.91 NW 10.29 N No 0.000 No Precipitation 06/14/2020 03:00 AM 06/14/2020 03:05 AM 0.000 0.000 0.000 0.000 0.000 Not Reported Not Reported